sensor_id;sensor_type;location;lat;lon;timestamp;temperature;humidity
27848;DHT22;15212;48.830;8.730;2022-10-22T00:00:30;12.30;99.90
27848;DHT22;15212;48.830;8.730;2022-10-22T00:02:58;12.30;99.90
27848;DHT22;15212;48.830;8.730;2022-10-22T00:05:27;12.30;99.90
27848;DHT22;15212;48.830;8.730;2022-10-22T00:07:55;12.30;99.90
27848;DHT22;15212;48.830;8.730;2022-10-22T00:10:24;12.30;99.90
27848;DHT22;15212;48.830;8.730;2022-10-22T00:12:53;12.20;99.90
27848;DHT22;15212;48.830;8.730;2022-10-22T00:15:22;12.20;99.90
27848;DHT22;15212;48.830;8.730;2022-10-22T00:17:50;12.20;99.90
27848;DHT22;15212;48.830;8.730;2022-10-22T00:20:19;12.20;99.90
27848;DHT22;15212;48.830;8.730;2022-10-22T00:22:48;12.20;99.90
27848;DHT22;15212;48.830;8.730;2022-10-22T00:25:16;12.20;99.90
27848;DHT22;15212;48.830;8.730;2022-10-22T00:27:45;12.20;99.90
27848;DHT22;15212;48.830;8.730;2022-10-22T00:30:13;12.20;99.90
27848;DHT22;15212;48.830;8.730;2022-10-22T00:32:42;12.20;99.90
27848;DHT22;15212;48.830;8.730;2022-10-22T00:35:10;12.30;99.90
27848;DHT22;15212;48.830;8.730;2022-10-22T00:37:38;12.30;99.90
27848;DHT22;15212;48.830;8.730;2022-10-22T00:40:08;12.30;99.90
27848;DHT22;15212;48.830;8.730;2022-10-22T00:42:37;12.30;99.90
27848;DHT22;15212;48.830;8.730;2022-10-22T00:45:14;12.40;99.90
27848;DHT22;15212;48.830;8.730;2022-10-22T00:48:03;12.40;99.90
27848;DHT22;15212;48.830;8.730;2022-10-22T00:50:35;12.40;99.90
27848;DHT22;15212;48.830;8.730;2022-10-22T00:53:23;12.40;99.90
27848;DHT22;15212;48.830;8.730;2022-10-22T00:55:51;12.40;99.90
27848;DHT22;15212;48.830;8.730;2022-10-22T00:58:22;12.30;99.90
27848;DHT22;15212;48.830;8.730;2022-10-22T01:00:53;12.30;99.90
27848;DHT22;15212;48.830;8.730;2022-10-22T01:03:22;12.30;99.90
27848;DHT22;15212;48.830;8.730;2022-10-22T01:05:56;12.20;99.90
27848;DHT22;15212;48.830;8.730;2022-10-22T01:14:37;12.20;99.90
27848;DHT22;15212;48.830;8.730;2022-10-22T01:17:22;12.20;99.90
27848;DHT22;15212;48.830;8.730;2022-10-22T01:22:58;12.20;99.90
27848;DHT22;15212;48.830;8.730;2022-10-22T01:28:35;12.20;99.90
27848;DHT22;15212;48.830;8.730;2022-10-22T01:31:14;12.20;99.90
27848;DHT22;15212;48.830;8.730;2022-10-22T01:33:45;12.20;99.90
27848;DHT22;15212;48.830;8.730;2022-10-22T01:36:16;12.20;99.90
27848;DHT22;15212;48.830;8.730;2022-10-22T01:38:45;12.20;99.90
27848;DHT22;15212;48.830;8.730;2022-10-22T01:41:14;12.20;99.90
27848;DHT22;15212;48.830;8.730;2022-10-22T01:43:43;12.20;99.90
27848;DHT22;15212;48.830;8.730;2022-10-22T01:46:12;12.20;99.90
27848;DHT22;15212;48.830;8.730;2022-10-22T01:49:03;12.20;99.90
27848;DHT22;15212;48.830;8.730;2022-10-22T02:00:14;12.20;99.90
27848;DHT22;15212;48.830;8.730;2022-10-22T02:02:53;12.20;99.90
27848;DHT22;15212;48.830;8.730;2022-10-22T02:05:36;12.30;99.90
27848;DHT22;15212;48.830;8.730;2022-10-22T02:08:13;12.30;99.90
27848;DHT22;15212;48.830;8.730;2022-10-22T02:10:44;12.30;99.90
27848;DHT22;15212;48.830;8.730;2022-10-22T02:13:22;12.30;99.90
27848;DHT22;15212;48.830;8.730;2022-10-22T02:15:51;12.40;99.90
27848;DHT22;15212;48.830;8.730;2022-10-22T02:18:22;12.40;99.90
27848;DHT22;15212;48.830;8.730;2022-10-22T02:20:53;12.50;99.90
27848;DHT22;15212;48.830;8.730;2022-10-22T02:23:22;12.60;99.90
27848;DHT22;15212;48.830;8.730;2022-10-22T02:25:59;12.60;99.90
27848;DHT22;15212;48.830;8.730;2022-10-22T02:28:36;12.60;99.90
27848;DHT22;15212;48.830;8.730;2022-10-22T02:31:18;12.70;99.90
27848;DHT22;15212;48.830;8.730;2022-10-22T02:33:46;12.70;99.90
27848;DHT22;15212;48.830;8.730;2022-10-22T02:36:16;12.80;99.90
27848;DHT22;15212;48.830;8.730;2022-10-22T02:38:47;12.80;99.90
27848;DHT22;15212;48.830;8.730;2022-10-22T02:41:17;12.80;99.90
27848;DHT22;15212;48.830;8.730;2022-10-22T02:43:56;12.80;99.90
27848;DHT22;15212;48.830;8.730;2022-10-22T02:46:25;12.80;99.90
27848;DHT22;15212;48.830;8.730;2022-10-22T02:48:53;12.80;99.90
27848;DHT22;15212;48.830;8.730;2022-10-22T02:51:21;12.80;99.90
27848;DHT22;15212;48.830;8.730;2022-10-22T02:53:50;12.80;99.90
27848;DHT22;15212;48.830;8.730;2022-10-22T02:56:18;12.80;99.90
27848;DHT22;15212;48.830;8.730;2022-10-22T02:58:47;12.80;99.90
27848;DHT22;15212;48.830;8.730;2022-10-22T03:01:15;12.80;99.90
27848;DHT22;15212;48.830;8.730;2022-10-22T03:03:43;12.80;99.90
27848;DHT22;15212;48.830;8.730;2022-10-22T03:06:12;12.80;99.90
27848;DHT22;15212;48.830;8.730;2022-10-22T03:08:40;12.80;99.90
27848;DHT22;15212;48.830;8.730;2022-10-22T03:11:09;12.80;99.90
27848;DHT22;15212;48.830;8.730;2022-10-22T03:13:37;12.70;99.90
27848;DHT22;15212;48.830;8.730;2022-10-22T03:16:06;12.70;99.90
27848;DHT22;15212;48.830;8.730;2022-10-22T03:18:34;12.70;99.90
27848;DHT22;15212;48.830;8.730;2022-10-22T03:23:42;12.60;99.90
27848;DHT22;15212;48.830;8.730;2022-10-22T03:26:12;12.60;99.90
27848;DHT22;15212;48.830;8.730;2022-10-22T03:28:41;12.50;99.90
27848;DHT22;15212;48.830;8.730;2022-10-22T03:31:11;12.50;99.90
27848;DHT22;15212;48.830;8.730;2022-10-22T03:33:40;12.50;99.90
27848;DHT22;15212;48.830;8.730;2022-10-22T03:36:08;12.40;99.90
27848;DHT22;15212;48.830;8.730;2022-10-22T03:38:38;12.40;99.90
27848;DHT22;15212;48.830;8.730;2022-10-22T03:41:07;12.40;99.90
27848;DHT22;15212;48.830;8.730;2022-10-22T03:43:37;12.30;99.90
27848;DHT22;15212;48.830;8.730;2022-10-22T03:46:06;12.40;99.90
27848;DHT22;15212;48.830;8.730;2022-10-22T03:48:34;12.30;99.90
27848;DHT22;15212;48.830;8.730;2022-10-22T03:51:03;12.30;99.90
27848;DHT22;15212;48.830;8.730;2022-10-22T03:53:32;12.30;99.90
27848;DHT22;15212;48.830;8.730;2022-10-22T03:56:00;12.40;99.90
27848;DHT22;15212;48.830;8.730;2022-10-22T03:58:28;12.40;99.90
27848;DHT22;15212;48.830;8.730;2022-10-22T04:00:57;12.40;99.90
27848;DHT22;15212;48.830;8.730;2022-10-22T04:03:28;12.40;99.90
27848;DHT22;15212;48.830;8.730;2022-10-22T04:06:02;12.40;99.90
27848;DHT22;15212;48.830;8.730;2022-10-22T04:08:31;12.40;99.90
27848;DHT22;15212;48.830;8.730;2022-10-22T04:11:00;12.40;99.90
27848;DHT22;15212;48.830;8.730;2022-10-22T04:13:28;12.40;99.90
27848;DHT22;15212;48.830;8.730;2022-10-22T04:16:14;12.40;99.90
27848;DHT22;15212;48.830;8.730;2022-10-22T04:18:48;12.40;99.90
27848;DHT22;15212;48.830;8.730;2022-10-22T04:21:18;12.40;99.90
27848;DHT22;15212;48.830;8.730;2022-10-22T04:23:48;12.40;99.90
27848;DHT22;15212;48.830;8.730;2022-10-22T04:26:18;12.40;99.90
27848;DHT22;15212;48.830;8.730;2022-10-22T04:28:49;12.50;99.90
27848;DHT22;15212;48.830;8.730;2022-10-22T04:31:20;12.50;99.90
27848;DHT22;15212;48.830;8.730;2022-10-22T04:33:57;12.60;99.90
27848;DHT22;15212;48.830;8.730;2022-10-22T04:36:27;12.60;99.90
27848;DHT22;15212;48.830;8.730;2022-10-22T04:38:57;12.70;99.90
27848;DHT22;15212;48.830;8.730;2022-10-22T04:41:32;12.80;99.90
27848;DHT22;15212;48.830;8.730;2022-10-22T04:44:03;12.80;99.90
27848;DHT22;15212;48.830;8.730;2022-10-22T04:46:33;12.90;99.90
27848;DHT22;15212;48.830;8.730;2022-10-22T04:49:02;12.80;99.90
27848;DHT22;15212;48.830;8.730;2022-10-22T04:51:31;12.80;99.90
27848;DHT22;15212;48.830;8.730;2022-10-22T04:53:59;12.90;99.90
27848;DHT22;15212;48.830;8.730;2022-10-22T04:56:30;12.90;99.90
27848;DHT22;15212;48.830;8.730;2022-10-22T04:59:04;12.90;99.90
27848;DHT22;15212;48.830;8.730;2022-10-22T05:01:36;12.90;99.90
27848;DHT22;15212;48.830;8.730;2022-10-22T05:04:09;12.90;99.90
27848;DHT22;15212;48.830;8.730;2022-10-22T05:06:38;12.80;99.90
27848;DHT22;15212;48.830;8.730;2022-10-22T05:09:12;12.80;99.90
27848;DHT22;15212;48.830;8.730;2022-10-22T05:11:43;12.90;99.90
27848;DHT22;15212;48.830;8.730;2022-10-22T05:14:16;12.90;99.90
27848;DHT22;15212;48.830;8.730;2022-10-22T05:16:47;12.80;99.90
27848;DHT22;15212;48.830;8.730;2022-10-22T05:19:22;12.80;99.90
27848;DHT22;15212;48.830;8.730;2022-10-22T05:21:53;12.80;99.90
27848;DHT22;15212;48.830;8.730;2022-10-22T05:24:24;12.80;99.90
27848;DHT22;15212;48.830;8.730;2022-10-22T05:26:55;12.70;99.90
27848;DHT22;15212;48.830;8.730;2022-10-22T05:29:25;12.70;99.90
27848;DHT22;15212;48.830;8.730;2022-10-22T05:31:54;12.70;99.90
27848;DHT22;15212;48.830;8.730;2022-10-22T05:34:22;12.70;99.90
27848;DHT22;15212;48.830;8.730;2022-10-22T05:36:51;12.70;99.90
27848;DHT22;15212;48.830;8.730;2022-10-22T05:39:19;12.70;99.90
27848;DHT22;15212;48.830;8.730;2022-10-22T05:41:47;12.80;99.90
27848;DHT22;15212;48.830;8.730;2022-10-22T05:44:16;12.80;99.90
27848;DHT22;15212;48.830;8.730;2022-10-22T05:46:45;12.80;99.90
27848;DHT22;15212;48.830;8.730;2022-10-22T05:49:14;12.90;99.90
27848;DHT22;15212;48.830;8.730;2022-10-22T05:51:43;12.80;99.90
27848;DHT22;15212;48.830;8.730;2022-10-22T05:54:17;12.80;99.90
27848;DHT22;15212;48.830;8.730;2022-10-22T05:56:48;12.80;99.90
27848;DHT22;15212;48.830;8.730;2022-10-22T05:59:16;12.80;99.90
27848;DHT22;15212;48.830;8.730;2022-10-22T06:01:44;12.80;99.90
27848;DHT22;15212;48.830;8.730;2022-10-22T06:04:13;12.80;99.90
27848;DHT22;15212;48.830;8.730;2022-10-22T06:06:50;12.80;99.90
27848;DHT22;15212;48.830;8.730;2022-10-22T06:09:25;12.80;99.90
27848;DHT22;15212;48.830;8.730;2022-10-22T06:11:56;12.80;99.90
27848;DHT22;15212;48.830;8.730;2022-10-22T06:14:25;12.80;99.90
27848;DHT22;15212;48.830;8.730;2022-10-22T06:16:54;12.90;99.90
27848;DHT22;15212;48.830;8.730;2022-10-22T06:19:25;12.80;99.90
27848;DHT22;15212;48.830;8.730;2022-10-22T06:21:55;12.80;99.90
27848;DHT22;15212;48.830;8.730;2022-10-22T06:24:23;12.70;99.90
27848;DHT22;15212;48.830;8.730;2022-10-22T06:26:52;12.60;99.90
27848;DHT22;15212;48.830;8.730;2022-10-22T06:29:20;12.60;99.90
27848;DHT22;15212;48.830;8.730;2022-10-22T06:31:49;12.50;99.90
27848;DHT22;15212;48.830;8.730;2022-10-22T06:34:17;12.50;99.90
27848;DHT22;15212;48.830;8.730;2022-10-22T06:36:46;12.50;99.90
27848;DHT22;15212;48.830;8.730;2022-10-22T06:39:17;12.50;99.90
27848;DHT22;15212;48.830;8.730;2022-10-22T06:41:45;12.50;99.90
27848;DHT22;15212;48.830;8.730;2022-10-22T06:44:15;12.50;99.90
27848;DHT22;15212;48.830;8.730;2022-10-22T06:46:44;12.50;99.90
27848;DHT22;15212;48.830;8.730;2022-10-22T06:49:15;12.40;99.90
27848;DHT22;15212;48.830;8.730;2022-10-22T06:51:43;12.40;99.90
27848;DHT22;15212;48.830;8.730;2022-10-22T06:54:12;12.40;99.90
27848;DHT22;15212;48.830;8.730;2022-10-22T06:56:40;12.40;99.90
27848;DHT22;15212;48.830;8.730;2022-10-22T06:59:09;12.50;99.90
27848;DHT22;15212;48.830;8.730;2022-10-22T07:01:38;12.40;99.90
27848;DHT22;15212;48.830;8.730;2022-10-22T07:04:09;12.40;99.90
27848;DHT22;15212;48.830;8.730;2022-10-22T07:06:37;12.40;99.90
27848;DHT22;15212;48.830;8.730;2022-10-22T07:09:06;12.50;99.90
27848;DHT22;15212;48.830;8.730;2022-10-22T07:14:29;12.40;99.90
27848;DHT22;15212;48.830;8.730;2022-10-22T07:16:58;12.50;99.90
27848;DHT22;15212;48.830;8.730;2022-10-22T07:19:26;12.50;99.90
27848;DHT22;15212;48.830;8.730;2022-10-22T07:21:55;12.50;99.90
27848;DHT22;15212;48.830;8.730;2022-10-22T07:24:23;12.50;99.90
27848;DHT22;15212;48.830;8.730;2022-10-22T08:12:58;12.90;99.90
27848;DHT22;15212;48.830;8.730;2022-10-22T08:55:15;16.00;99.90
27848;DHT22;15212;48.830;8.730;2022-10-22T09:04:18;15.90;99.90
27848;DHT22;15212;48.830;8.730;2022-10-22T09:06:52;15.90;99.90
27848;DHT22;15212;48.830;8.730;2022-10-22T09:09:21;16.00;99.90
27848;DHT22;15212;48.830;8.730;2022-10-22T09:11:53;16.10;99.90
27848;DHT22;15212;48.830;8.730;2022-10-22T09:14:24;16.20;99.90
27848;DHT22;15212;48.830;8.730;2022-10-22T09:17:24;16.30;99.90
27848;DHT22;15212;48.830;8.730;2022-10-22T09:21:05;16.30;99.90
27848;DHT22;15212;48.830;8.730;2022-10-22T09:23:11;16.30;99.90
27848;DHT22;15212;48.830;8.730;2022-10-22T09:25:52;16.40;99.90
27848;DHT22;15212;48.830;8.730;2022-10-22T09:28:21;16.40;99.90
27848;DHT22;15212;48.830;8.730;2022-10-22T09:30:49;16.50;99.90
27848;DHT22;15212;48.830;8.730;2022-10-22T09:33:26;16.70;99.90
27848;DHT22;15212;48.830;8.730;2022-10-22T09:35:59;16.80;99.90
27848;DHT22;15212;48.830;8.730;2022-10-22T09:38:45;17.00;99.90
27848;DHT22;15212;48.830;8.730;2022-10-22T09:41:08;17.10;99.90
27848;DHT22;15212;48.830;8.730;2022-10-22T09:43:36;17.20;99.90
27848;DHT22;15212;48.830;8.730;2022-10-22T09:46:07;17.00;99.90
27848;DHT22;15212;48.830;8.730;2022-10-22T09:51:50;16.80;99.90
27848;DHT22;15212;48.830;8.730;2022-10-22T09:54:38;16.70;99.90
27848;DHT22;15212;48.830;8.730;2022-10-22T09:57:16;16.60;99.90
27848;DHT22;15212;48.830;8.730;2022-10-22T09:59:50;16.70;99.90
27848;DHT22;15212;48.830;8.730;2022-10-22T10:02:26;16.70;99.90
27848;DHT22;15212;48.830;8.730;2022-10-22T10:04:56;16.80;99.90
27848;DHT22;15212;48.830;8.730;2022-10-22T10:07:29;16.80;99.90
27848;DHT22;15212;48.830;8.730;2022-10-22T10:09:57;16.90;99.90
27848;DHT22;15212;48.830;8.730;2022-10-22T10:18:27;16.90;99.90
27848;DHT22;15212;48.830;8.730;2022-10-22T10:21:18;16.80;99.90
27848;DHT22;15212;48.830;8.730;2022-10-22T10:24:00;16.60;99.90
27848;DHT22;15212;48.830;8.730;2022-10-22T10:32:00;16.30;99.90
27848;DHT22;15212;48.830;8.730;2022-10-22T10:34:55;16.20;99.90
27848;DHT22;15212;48.830;8.730;2022-10-22T10:37:33;16.10;99.90
27848;DHT22;15212;48.830;8.730;2022-10-22T10:40:23;16.00;99.90
27848;DHT22;15212;48.830;8.730;2022-10-22T10:43:07;16.00;99.90
27848;DHT22;15212;48.830;8.730;2022-10-22T10:46:06;16.20;99.90
27848;DHT22;15212;48.830;8.730;2022-10-22T10:49:08;16.40;99.90
27848;DHT22;15212;48.830;8.730;2022-10-22T10:51:53;16.70;99.90
27848;DHT22;15212;48.830;8.730;2022-10-22T10:55:11;16.80;99.90
27848;DHT22;15212;48.830;8.730;2022-10-22T10:57:45;17.00;99.90
27848;DHT22;15212;48.830;8.730;2022-10-22T11:00:19;17.10;99.90
27848;DHT22;15212;48.830;8.730;2022-10-22T11:08:35;17.50;99.90
27848;DHT22;15212;48.830;8.730;2022-10-22T11:11:25;17.60;99.90
27848;DHT22;15212;48.830;8.730;2022-10-22T11:13:56;17.60;99.90
27848;DHT22;15212;48.830;8.730;2022-10-22T11:16:52;17.70;99.90
27848;DHT22;15212;48.830;8.730;2022-10-22T11:19:23;17.80;99.90
27848;DHT22;15212;48.830;8.730;2022-10-22T11:21:57;17.80;99.90
27848;DHT22;15212;48.830;8.730;2022-10-22T11:27:29;17.80;99.90
27848;DHT22;15212;48.830;8.730;2022-10-22T11:30:01;17.90;99.90
27848;DHT22;15212;48.830;8.730;2022-10-22T11:32:42;17.80;99.90
27848;DHT22;15212;48.830;8.730;2022-10-22T11:35:15;17.80;99.90
27848;DHT22;15212;48.830;8.730;2022-10-22T11:37:46;17.90;99.90
27848;DHT22;15212;48.830;8.730;2022-10-22T11:40:20;17.90;99.90
27848;DHT22;15212;48.830;8.730;2022-10-22T11:42:54;18.00;99.90
27848;DHT22;15212;48.830;8.730;2022-10-22T11:45:26;18.00;99.90
27848;DHT22;15212;48.830;8.730;2022-10-22T11:50:49;18.00;99.90
27848;DHT22;15212;48.830;8.730;2022-10-22T11:53:31;18.00;99.90
27848;DHT22;15212;48.830;8.730;2022-10-22T11:58:49;18.00;99.90
27848;DHT22;15212;48.830;8.730;2022-10-22T12:01:22;18.00;99.90
27848;DHT22;15212;48.830;8.730;2022-10-22T12:07:00;17.90;99.90
27848;DHT22;15212;48.830;8.730;2022-10-22T12:09:30;17.90;99.90
27848;DHT22;15212;48.830;8.730;2022-10-22T12:12:19;18.00;99.90
27848;DHT22;15212;48.830;8.730;2022-10-22T12:14:57;18.00;99.90
27848;DHT22;15212;48.830;8.730;2022-10-22T12:17:27;18.00;99.90
27848;DHT22;15212;48.830;8.730;2022-10-22T12:20:10;18.00;99.90
27848;DHT22;15212;48.830;8.730;2022-10-22T12:22:35;18.00;99.90
27848;DHT22;15212;48.830;8.730;2022-10-22T12:25:20;18.00;99.90
27848;DHT22;15212;48.830;8.730;2022-10-22T12:27:54;18.00;99.90
27848;DHT22;15212;48.830;8.730;2022-10-22T12:30:32;18.00;99.90
27848;DHT22;15212;48.830;8.730;2022-10-22T12:33:02;18.00;99.90
27848;DHT22;15212;48.830;8.730;2022-10-22T12:35:40;18.00;99.90
27848;DHT22;15212;48.830;8.730;2022-10-22T12:38:14;18.00;99.90
27848;DHT22;15212;48.830;8.730;2022-10-22T12:40:45;18.10;99.90
27848;DHT22;15212;48.830;8.730;2022-10-22T12:43:22;18.20;99.90
27848;DHT22;15212;48.830;8.730;2022-10-22T12:45:52;18.20;99.90
27848;DHT22;15212;48.830;8.730;2022-10-22T12:48:26;18.30;99.90
27848;DHT22;15212;48.830;8.730;2022-10-22T12:50:58;18.30;99.90
27848;DHT22;15212;48.830;8.730;2022-10-22T12:56:11;18.40;99.90
27848;DHT22;15212;48.830;8.730;2022-10-22T12:58:50;18.40;99.90
27848;DHT22;15212;48.830;8.730;2022-10-22T13:01:24;18.40;99.90
27848;DHT22;15212;48.830;8.730;2022-10-22T13:04:17;18.40;99.90
27848;DHT22;15212;48.830;8.730;2022-10-22T13:06:50;18.40;99.90
27848;DHT22;15212;48.830;8.730;2022-10-22T13:09:24;18.50;99.90
27848;DHT22;15212;48.830;8.730;2022-10-22T13:12:01;18.60;99.90
27848;DHT22;15212;48.830;8.730;2022-10-22T13:14:52;18.60;99.90
27848;DHT22;15212;48.830;8.730;2022-10-22T13:17:38;18.60;99.90
27848;DHT22;15212;48.830;8.730;2022-10-22T13:20:19;18.60;99.90
27848;DHT22;15212;48.830;8.730;2022-10-22T13:22:58;18.60;99.90
27848;DHT22;15212;48.830;8.730;2022-10-22T13:25:29;18.70;99.90
27848;DHT22;15212;48.830;8.730;2022-10-22T13:30:50;18.70;99.90
27848;DHT22;15212;48.830;8.730;2022-10-22T13:33:24;18.70;99.90
27848;DHT22;15212;48.830;8.730;2022-10-22T13:35:55;18.70;99.90
27848;DHT22;15212;48.830;8.730;2022-10-22T13:38:25;18.80;99.90
27848;DHT22;15212;48.830;8.730;2022-10-22T13:40:55;18.80;99.90
27848;DHT22;15212;48.830;8.730;2022-10-22T13:43:24;18.80;99.90
27848;DHT22;15212;48.830;8.730;2022-10-22T13:45:57;18.80;99.90
27848;DHT22;15212;48.830;8.730;2022-10-22T13:48:28;18.90;99.90
27848;DHT22;15212;48.830;8.730;2022-10-22T13:50:56;18.90;99.90
27848;DHT22;15212;48.830;8.730;2022-10-22T13:53:26;18.90;99.90
27848;DHT22;15212;48.830;8.730;2022-10-22T13:55:55;18.80;99.90
27848;DHT22;15212;48.830;8.730;2022-10-22T13:58:24;18.90;99.90
27848;DHT22;15212;48.830;8.730;2022-10-22T14:00:57;18.80;99.90
27848;DHT22;15212;48.830;8.730;2022-10-22T14:03:30;18.80;99.90
27848;DHT22;15212;48.830;8.730;2022-10-22T14:06:00;18.90;99.90
27848;DHT22;15212;48.830;8.730;2022-10-22T14:08:28;18.90;99.90
27848;DHT22;15212;48.830;8.730;2022-10-22T14:10:57;18.90;99.90
27848;DHT22;15212;48.830;8.730;2022-10-22T14:13:25;18.90;99.90
27848;DHT22;15212;48.830;8.730;2022-10-22T14:15:53;18.90;99.90
27848;DHT22;15212;48.830;8.730;2022-10-22T14:18:24;18.90;99.90
27848;DHT22;15212;48.830;8.730;2022-10-22T14:20:59;18.80;99.90
27848;DHT22;15212;48.830;8.730;2022-10-22T14:23:31;18.80;99.90
27848;DHT22;15212;48.830;8.730;2022-10-22T14:26:00;18.70;99.90
27848;DHT22;15212;48.830;8.730;2022-10-22T14:28:29;18.70;99.90
27848;DHT22;15212;48.830;8.730;2022-10-22T14:30:57;18.70;99.90
27848;DHT22;15212;48.830;8.730;2022-10-22T14:33:28;18.70;99.90
27848;DHT22;15212;48.830;8.730;2022-10-22T14:35:59;18.60;99.90
27848;DHT22;15212;48.830;8.730;2022-10-22T14:38:28;18.60;99.90
27848;DHT22;15212;48.830;8.730;2022-10-22T14:40:58;18.60;99.90
27848;DHT22;15212;48.830;8.730;2022-10-22T14:43:28;18.60;99.90
27848;DHT22;15212;48.830;8.730;2022-10-22T14:45:57;18.60;99.90
27848;DHT22;15212;48.830;8.730;2022-10-22T14:48:26;18.50;99.90
27848;DHT22;15212;48.830;8.730;2022-10-22T14:50:54;18.50;99.90
27848;DHT22;15212;48.830;8.730;2022-10-22T14:53:22;18.50;99.90
27848;DHT22;15212;48.830;8.730;2022-10-22T14:55:51;18.50;99.90
27848;DHT22;15212;48.830;8.730;2022-10-22T14:58:21;18.40;99.90
27848;DHT22;15212;48.830;8.730;2022-10-22T15:00:49;18.40;99.90
27848;DHT22;15212;48.830;8.730;2022-10-22T15:03:17;18.30;99.90
27848;DHT22;15212;48.830;8.730;2022-10-22T15:05:49;18.20;99.90
27848;DHT22;15212;48.830;8.730;2022-10-22T15:08:19;18.10;99.90
27848;DHT22;15212;48.830;8.730;2022-10-22T15:10:59;18.10;99.90
27848;DHT22;15212;48.830;8.730;2022-10-22T15:13:29;18.00;99.90
27848;DHT22;15212;48.830;8.730;2022-10-22T15:15:58;18.00;99.90
27848;DHT22;15212;48.830;8.730;2022-10-22T15:18:27;17.90;99.90
27848;DHT22;15212;48.830;8.730;2022-10-22T15:20:58;17.80;99.90
27848;DHT22;15212;48.830;8.730;2022-10-22T15:23:28;17.70;99.90
27848;DHT22;15212;48.830;8.730;2022-10-22T15:25:57;17.60;99.90
27848;DHT22;15212;48.830;8.730;2022-10-22T15:28:25;17.50;99.90
27848;DHT22;15212;48.830;8.730;2022-10-22T15:30:56;17.50;99.90
27848;DHT22;15212;48.830;8.730;2022-10-22T15:33:27;17.30;99.90
27848;DHT22;15212;48.830;8.730;2022-10-22T15:35:56;17.20;99.90
27848;DHT22;15212;48.830;8.730;2022-10-22T15:38:28;17.00;99.90
27848;DHT22;15212;48.830;8.730;2022-10-22T15:41:04;16.80;99.90
27848;DHT22;15212;48.830;8.730;2022-10-22T15:43:34;16.70;99.90
27848;DHT22;15212;48.830;8.730;2022-10-22T15:46:12;16.60;99.90
27848;DHT22;15212;48.830;8.730;2022-10-22T15:48:42;16.40;99.90
27848;DHT22;15212;48.830;8.730;2022-10-22T15:51:13;16.20;99.90
27848;DHT22;15212;48.830;8.730;2022-10-22T15:53:43;16.00;99.90
27848;DHT22;15212;48.830;8.730;2022-10-22T15:56:21;15.80;99.90
27848;DHT22;15212;48.830;8.730;2022-10-22T15:58:57;15.60;99.90
27848;DHT22;15212;48.830;8.730;2022-10-22T16:01:29;15.40;99.90
27848;DHT22;15212;48.830;8.730;2022-10-22T16:03:59;15.30;99.90
27848;DHT22;15212;48.830;8.730;2022-10-22T16:06:33;15.20;99.90
27848;DHT22;15212;48.830;8.730;2022-10-22T16:09:06;15.10;99.90
27848;DHT22;15212;48.830;8.730;2022-10-22T16:11:36;15.10;99.90
27848;DHT22;15212;48.830;8.730;2022-10-22T16:14:06;15.10;99.90
27848;DHT22;15212;48.830;8.730;2022-10-22T16:16:35;15.00;99.90
27848;DHT22;15212;48.830;8.730;2022-10-22T16:19:05;14.90;99.90
27848;DHT22;15212;48.830;8.730;2022-10-22T16:21:35;14.90;99.90
27848;DHT22;15212;48.830;8.730;2022-10-22T16:24:04;14.80;99.90
27848;DHT22;15212;48.830;8.730;2022-10-22T16:26:34;14.60;99.90
27848;DHT22;15212;48.830;8.730;2022-10-22T16:29:03;14.50;99.90
27848;DHT22;15212;48.830;8.730;2022-10-22T16:31:33;14.40;99.90
27848;DHT22;15212;48.830;8.730;2022-10-22T16:34:02;14.30;99.90
27848;DHT22;15212;48.830;8.730;2022-10-22T16:36:30;14.20;99.90
27848;DHT22;15212;48.830;8.730;2022-10-22T16:38:59;14.20;99.90
27848;DHT22;15212;48.830;8.730;2022-10-22T16:41:27;14.20;99.90
27848;DHT22;15212;48.830;8.730;2022-10-22T16:43:57;14.20;99.90
27848;DHT22;15212;48.830;8.730;2022-10-22T16:46:27;14.30;99.90
27848;DHT22;15212;48.830;8.730;2022-10-22T16:48:56;14.40;99.90
27848;DHT22;15212;48.830;8.730;2022-10-22T16:51:26;14.40;99.90
27848;DHT22;15212;48.830;8.730;2022-10-22T16:53:56;14.40;99.90
27848;DHT22;15212;48.830;8.730;2022-10-22T16:56:25;14.50;99.90
27848;DHT22;15212;48.830;8.730;2022-10-22T16:58:55;14.60;99.90
27848;DHT22;15212;48.830;8.730;2022-10-22T17:01:26;14.60;99.90
27848;DHT22;15212;48.830;8.730;2022-10-22T17:03:57;14.60;99.90
27848;DHT22;15212;48.830;8.730;2022-10-22T17:06:26;14.60;99.90
27848;DHT22;15212;48.830;8.730;2022-10-22T17:08:54;14.60;99.90
27848;DHT22;15212;48.830;8.730;2022-10-22T17:11:23;14.50;99.90
27848;DHT22;15212;48.830;8.730;2022-10-22T17:13:54;14.50;99.90
27848;DHT22;15212;48.830;8.730;2022-10-22T17:16:23;14.50;99.90
27848;DHT22;15212;48.830;8.730;2022-10-22T17:18:53;14.50;99.90
27848;DHT22;15212;48.830;8.730;2022-10-22T17:21:22;14.40;99.90
27848;DHT22;15212;48.830;8.730;2022-10-22T17:23:57;14.40;99.90
27848;DHT22;15212;48.830;8.730;2022-10-22T17:26:25;14.30;99.90
27848;DHT22;15212;48.830;8.730;2022-10-22T17:28:54;14.30;99.90
27848;DHT22;15212;48.830;8.730;2022-10-22T17:31:33;14.20;99.90
27848;DHT22;15212;48.830;8.730;2022-10-22T17:34:05;14.10;99.90
27848;DHT22;15212;48.830;8.730;2022-10-22T17:36:35;14.10;99.90
27848;DHT22;15212;48.830;8.730;2022-10-22T17:39:06;14.00;99.90
27848;DHT22;15212;48.830;8.730;2022-10-22T17:41:35;14.00;99.90
27848;DHT22;15212;48.830;8.730;2022-10-22T17:44:06;14.00;99.90
27848;DHT22;15212;48.830;8.730;2022-10-22T17:46:35;14.00;99.90
27848;DHT22;15212;48.830;8.730;2022-10-22T17:49:08;14.00;99.90
27848;DHT22;15212;48.830;8.730;2022-10-22T17:51:36;13.90;99.90
27848;DHT22;15212;48.830;8.730;2022-10-22T17:54:05;13.90;99.90
27848;DHT22;15212;48.830;8.730;2022-10-22T17:56:33;13.90;99.90
27848;DHT22;15212;48.830;8.730;2022-10-22T17:59:02;13.90;99.90
27848;DHT22;15212;48.830;8.730;2022-10-22T18:01:33;13.90;99.90
27848;DHT22;15212;48.830;8.730;2022-10-22T18:04:07;13.90;99.90
27848;DHT22;15212;48.830;8.730;2022-10-22T18:06:37;13.80;99.90
27848;DHT22;15212;48.830;8.730;2022-10-22T18:09:06;13.70;99.90
27848;DHT22;15212;48.830;8.730;2022-10-22T18:11:36;13.60;99.90
27848;DHT22;15212;48.830;8.730;2022-10-22T18:14:04;13.60;99.90
27848;DHT22;15212;48.830;8.730;2022-10-22T18:16:33;13.50;99.90
27848;DHT22;15212;48.830;8.730;2022-10-22T18:19:02;13.50;99.90
27848;DHT22;15212;48.830;8.730;2022-10-22T18:21:31;13.50;99.90
27848;DHT22;15212;48.830;8.730;2022-10-22T18:23:59;13.50;99.90
27848;DHT22;15212;48.830;8.730;2022-10-22T18:26:27;13.50;99.90
27848;DHT22;15212;48.830;8.730;2022-10-22T18:28:56;13.50;99.90
27848;DHT22;15212;48.830;8.730;2022-10-22T18:31:26;13.50;99.90
27848;DHT22;15212;48.830;8.730;2022-10-22T18:33:56;13.60;99.90
27848;DHT22;15212;48.830;8.730;2022-10-22T18:36:26;13.70;99.90